sensor_id;sensor_type;location;lat;lon;timestamp;P1;durP1;ratioP1;P2;durP2;ratioP2
34876;SDS011;21086;44.780;17.194;2023-11-18T00:01:56;11.13;;;6.93;;
34876;SDS011;21086;44.780;17.194;2023-11-18T00:04:43;11.82;;;8.07;;
34876;SDS011;21086;44.780;17.194;2023-11-18T00:07:30;12.88;;;8.60;;
34876;SDS011;21086;44.780;17.194;2023-11-18T00:10:19;9.88;;;6.88;;
34876;SDS011;21086;44.780;17.194;2023-11-18T00:13:06;9.25;;;5.90;;
34876;SDS011;21086;44.780;17.194;2023-11-18T00:15:55;9.55;;;5.45;;
34876;SDS011;21086;44.780;17.194;2023-11-18T00:18:44;11.55;;;6.70;;
34876;SDS011;21086;44.780;17.194;2023-11-18T00:21:32;6.75;;;4.50;;
34876;SDS011;21086;44.780;17.194;2023-11-18T00:24:19;8.60;;;5.03;;
34876;SDS011;21086;44.780;17.194;2023-11-18T00:27:06;6.90;;;4.03;;
34876;SDS011;21086;44.780;17.194;2023-11-18T00:29:53;5.60;;;3.60;;
34876;SDS011;21086;44.780;17.194;2023-11-18T00:32:41;6.22;;;3.83;;
34876;SDS011;21086;44.780;17.194;2023-11-18T00:35:28;6.45;;;4.00;;
34876;SDS011;21086;44.780;17.194;2023-11-18T00:38:18;5.50;;;3.65;;
34876;SDS011;21086;44.780;17.194;2023-11-18T00:41:06;6.22;;;3.80;;
34876;SDS011;21086;44.780;17.194;2023-11-18T00:43:53;5.82;;;3.95;;
34876;SDS011;21086;44.780;17.194;2023-11-18T00:46:41;6.47;;;3.95;;
34876;SDS011;21086;44.780;17.194;2023-11-18T00:49:28;5.32;;;3.40;;
34876;SDS011;21086;44.780;17.194;2023-11-18T00:52:16;5.18;;;3.45;;
34876;SDS011;21086;44.780;17.194;2023-11-18T00:55:05;6.80;;;3.70;;
34876;SDS011;21086;44.780;17.194;2023-11-18T00:57:53;6.60;;;3.38;;
34876;SDS011;21086;44.780;17.194;2023-11-18T01:00:41;5.65;;;3.40;;
34876;SDS011;21086;44.780;17.194;2023-11-18T01:03:30;5.50;;;2.85;;
34876;SDS011;21086;44.780;17.194;2023-11-18T01:06:17;4.50;;;3.30;;
34876;SDS011;21086;44.780;17.194;2023-11-18T01:09:04;4.40;;;2.90;;
34876;SDS011;21086;44.780;17.194;2023-11-18T01:11:53;7.18;;;4.63;;
34876;SDS011;21086;44.780;17.194;2023-11-18T01:14:54;6.15;;;3.85;;
34876;SDS011;21086;44.780;17.194;2023-11-18T01:17:41;4.00;;;2.80;;
34876;SDS011;21086;44.780;17.194;2023-11-18T01:20:29;4.00;;;2.53;;
34876;SDS011;21086;44.780;17.194;2023-11-18T01:23:16;5.15;;;2.50;;
34876;SDS011;21086;44.780;17.194;2023-11-18T01:26:04;5.93;;;2.63;;
34876;SDS011;21086;44.780;17.194;2023-11-18T01:28:52;4.20;;;2.20;;
34876;SDS011;21086;44.780;17.194;2023-11-18T01:31:39;3.15;;;2.33;;
34876;SDS011;21086;44.780;17.194;2023-11-18T01:34:38;3.08;;;1.90;;
34876;SDS011;21086;44.780;17.194;2023-11-18T01:37:30;2.05;;;1.58;;
34876;SDS011;21086;44.780;17.194;2023-11-18T01:40:18;3.28;;;1.92;;
34876;SDS011;21086;44.780;17.194;2023-11-18T01:43:08;3.67;;;2.47;;
34876;SDS011;21086;44.780;17.194;2023-11-18T01:45:59;3.72;;;2.00;;
34876;SDS011;21086;44.780;17.194;2023-11-18T01:48:49;3.13;;;2.30;;
34876;SDS011;21086;44.780;17.194;2023-11-18T01:51:38;3.45;;;2.55;;
34876;SDS011;21086;44.780;17.194;2023-11-18T01:54:25;4.38;;;2.40;;
34876;SDS011;21086;44.780;17.194;2023-11-18T01:57:15;5.50;;;3.83;;
34876;SDS011;21086;44.780;17.194;2023-11-18T02:00:02;4.30;;;2.78;;
34876;SDS011;21086;44.780;17.194;2023-11-18T02:02:53;5.10;;;2.90;;
34876;SDS011;21086;44.780;17.194;2023-11-18T02:05:40;4.93;;;3.00;;
34876;SDS011;21086;44.780;17.194;2023-11-18T02:08:29;4.50;;;2.42;;
34876;SDS011;21086;44.780;17.194;2023-11-18T02:11:20;3.58;;;2.47;;
34876;SDS011;21086;44.780;17.194;2023-11-18T02:14:21;4.07;;;2.45;;
34876;SDS011;21086;44.780;17.194;2023-11-18T02:17:14;3.17;;;2.00;;
34876;SDS011;21086;44.780;17.194;2023-11-18T02:20:04;2.53;;;1.88;;
34876;SDS011;21086;44.780;17.194;2023-11-18T02:23:02;2.60;;;1.80;;
34876;SDS011;21086;44.780;17.194;2023-11-18T02:25:50;3.10;;;1.92;;
34876;SDS011;21086;44.780;17.194;2023-11-18T02:28:37;2.55;;;1.88;;
34876;SDS011;21086;44.780;17.194;2023-11-18T02:31:33;2.40;;;1.80;;
34876;SDS011;21086;44.780;17.194;2023-11-18T02:34:25;4.57;;;2.10;;
34876;SDS011;21086;44.780;17.194;2023-11-18T02:37:15;2.33;;;1.98;;
34876;SDS011;21086;44.780;17.194;2023-11-18T02:40:04;3.05;;;1.90;;
34876;SDS011;21086;44.780;17.194;2023-11-18T02:42:55;5.57;;;4.10;;
34876;SDS011;21086;44.780;17.194;2023-11-18T02:45:45;7.85;;;5.70;;
34876;SDS011;21086;44.780;17.194;2023-11-18T02:48:34;4.30;;;3.08;;
34876;SDS011;21086;44.780;17.194;2023-11-18T02:51:24;3.25;;;1.83;;
34876;SDS011;21086;44.780;17.194;2023-11-18T02:54:13;5.47;;;2.47;;
34876;SDS011;21086;44.780;17.194;2023-11-18T02:57:00;2.80;;;1.65;;
34876;SDS011;21086;44.780;17.194;2023-11-18T02:59:47;4.05;;;1.92;;
34876;SDS011;21086;44.780;17.194;2023-11-18T03:02:35;3.58;;;2.50;;
34876;SDS011;21086;44.780;17.194;2023-11-18T03:05:22;2.80;;;1.83;;
34876;SDS011;21086;44.780;17.194;2023-11-18T03:08:12;2.50;;;1.77;;
34876;SDS011;21086;44.780;17.194;2023-11-18T03:11:00;2.67;;;1.70;;
34876;SDS011;21086;44.780;17.194;2023-11-18T03:13:47;3.10;;;1.85;;
34876;SDS011;21086;44.780;17.194;2023-11-18T03:16:35;1.60;;;1.25;;
34876;SDS011;21086;44.780;17.194;2023-11-18T03:19:25;2.03;;;1.30;;
34876;SDS011;21086;44.780;17.194;2023-11-18T03:22:12;2.58;;;1.58;;
34876;SDS011;21086;44.780;17.194;2023-11-18T03:25:00;1.52;;;1.20;;
34876;SDS011;21086;44.780;17.194;2023-11-18T03:27:47;2.00;;;1.48;;
34876;SDS011;21086;44.780;17.194;2023-11-18T03:30:34;2.70;;;2.03;;
34876;SDS011;21086;44.780;17.194;2023-11-18T03:33:23;2.45;;;1.45;;
34876;SDS011;21086;44.780;17.194;2023-11-18T03:36:11;2.50;;;1.67;;
34876;SDS011;21086;44.780;17.194;2023-11-18T03:38:58;4.55;;;2.78;;
34876;SDS011;21086;44.780;17.194;2023-11-18T03:41:48;4.60;;;2.53;;
34876;SDS011;21086;44.780;17.194;2023-11-18T03:44:36;5.68;;;2.88;;
34876;SDS011;21086;44.780;17.194;2023-11-18T03:47:24;3.80;;;2.35;;
34876;SDS011;21086;44.780;17.194;2023-11-18T03:50:11;5.53;;;2.92;;
34876;SDS011;21086;44.780;17.194;2023-11-18T03:53:00;3.92;;;2.33;;
34876;SDS011;21086;44.780;17.194;2023-11-18T03:55:50;6.47;;;3.30;;
34876;SDS011;21086;44.780;17.194;2023-11-18T03:58:38;5.55;;;3.28;;
34876;SDS011;21086;44.780;17.194;2023-11-18T04:01:27;3.53;;;2.58;;
34876;SDS011;21086;44.780;17.194;2023-11-18T04:04:14;4.65;;;2.65;;
34876;SDS011;21086;44.780;17.194;2023-11-18T04:07:03;3.65;;;2.50;;
34876;SDS011;21086;44.780;17.194;2023-11-18T04:09:50;3.40;;;2.53;;
34876;SDS011;21086;44.780;17.194;2023-11-18T04:12:38;3.10;;;2.03;;
34876;SDS011;21086;44.780;17.194;2023-11-18T04:15:25;4.18;;;2.53;;
34876;SDS011;21086;44.780;17.194;2023-11-18T04:18:13;3.28;;;2.83;;
34876;SDS011;21086;44.780;17.194;2023-11-18T04:21:00;3.17;;;2.50;;
34876;SDS011;21086;44.780;17.194;2023-11-18T04:23:48;3.92;;;2.58;;
34876;SDS011;21086;44.780;17.194;2023-11-18T04:26:35;4.13;;;2.90;;
34876;SDS011;21086;44.780;17.194;2023-11-18T04:29:22;4.82;;;2.40;;
34876;SDS011;21086;44.780;17.194;2023-11-18T04:32:10;3.50;;;2.50;;
34876;SDS011;21086;44.780;17.194;2023-11-18T04:34:57;3.17;;;2.10;;
34876;SDS011;21086;44.780;17.194;2023-11-18T04:37:44;3.22;;;2.35;;
34876;SDS011;21086;44.780;17.194;2023-11-18T04:40:32;3.60;;;2.50;;
34876;SDS011;21086;44.780;17.194;2023-11-18T04:43:21;3.22;;;2.28;;
34876;SDS011;21086;44.780;17.194;2023-11-18T04:46:24;2.53;;;1.73;;
34876;SDS011;21086;44.780;17.194;2023-11-18T04:49:12;2.42;;;1.70;;
34876;SDS011;21086;44.780;17.194;2023-11-18T04:51:59;3.50;;;2.30;;
34876;SDS011;21086;44.780;17.194;2023-11-18T04:54:47;2.90;;;1.80;;
34876;SDS011;21086;44.780;17.194;2023-11-18T04:57:34;3.13;;;1.85;;
34876;SDS011;21086;44.780;17.194;2023-11-18T05:00:22;3.70;;;2.30;;
34876;SDS011;21086;44.780;17.194;2023-11-18T05:03:09;1.63;;;1.10;;
34876;SDS011;21086;44.780;17.194;2023-11-18T05:05:56;2.22;;;1.40;;
34876;SDS011;21086;44.780;17.194;2023-11-18T05:08:44;3.67;;;2.38;;
34876;SDS011;21086;44.780;17.194;2023-11-18T05:11:32;2.17;;;1.42;;
34876;SDS011;21086;44.780;17.194;2023-11-18T05:14:19;4.47;;;2.72;;
34876;SDS011;21086;44.780;17.194;2023-11-18T05:17:07;4.93;;;2.55;;
34876;SDS011;21086;44.780;17.194;2023-11-18T05:19:55;4.93;;;3.72;;
34876;SDS011;21086;44.780;17.194;2023-11-18T05:22:42;3.70;;;2.60;;
34876;SDS011;21086;44.780;17.194;2023-11-18T05:25:30;3.33;;;1.95;;
34876;SDS011;21086;44.780;17.194;2023-11-18T05:28:19;4.90;;;2.40;;
34876;SDS011;21086;44.780;17.194;2023-11-18T05:31:08;4.32;;;2.78;;
34876;SDS011;21086;44.780;17.194;2023-11-18T05:33:55;4.10;;;2.78;;
34876;SDS011;21086;44.780;17.194;2023-11-18T05:36:43;5.68;;;2.95;;
34876;SDS011;21086;44.780;17.194;2023-11-18T05:39:30;4.63;;;3.28;;
34876;SDS011;21086;44.780;17.194;2023-11-18T05:42:18;6.88;;;5.13;;
34876;SDS011;21086;44.780;17.194;2023-11-18T05:45:06;6.57;;;4.47;;
34876;SDS011;21086;44.780;17.194;2023-11-18T05:47:54;7.75;;;4.53;;
34876;SDS011;21086;44.780;17.194;2023-11-18T05:50:42;4.22;;;2.83;;
34876;SDS011;21086;44.780;17.194;2023-11-18T05:53:34;2.85;;;2.15;;
34876;SDS011;21086;44.780;17.194;2023-11-18T05:56:22;4.50;;;3.33;;
34876;SDS011;21086;44.780;17.194;2023-11-18T05:59:10;3.63;;;2.60;;
34876;SDS011;21086;44.780;17.194;2023-11-18T06:02:00;4.65;;;2.90;;
34876;SDS011;21086;44.780;17.194;2023-11-18T06:04:50;4.45;;;3.40;;
34876;SDS011;21086;44.780;17.194;2023-11-18T06:07:38;5.18;;;3.10;;
34876;SDS011;21086;44.780;17.194;2023-11-18T06:10:30;5.50;;;3.15;;
34876;SDS011;21086;44.780;17.194;2023-11-18T06:13:21;3.75;;;2.35;;
34876;SDS011;21086;44.780;17.194;2023-11-18T06:16:09;3.72;;;2.55;;
34876;SDS011;21086;44.780;17.194;2023-11-18T06:19:03;3.75;;;2.55;;
34876;SDS011;21086;44.780;17.194;2023-11-18T06:21:51;3.35;;;2.33;;
34876;SDS011;21086;44.780;17.194;2023-11-18T06:24:39;4.30;;;2.20;;
34876;SDS011;21086;44.780;17.194;2023-11-18T06:27:26;6.05;;;3.58;;
34876;SDS011;21086;44.780;17.194;2023-11-18T06:30:13;7.70;;;5.63;;
34876;SDS011;21086;44.780;17.194;2023-11-18T06:33:02;10.13;;;7.43;;
34876;SDS011;21086;44.780;17.194;2023-11-18T06:35:50;8.90;;;6.53;;
34876;SDS011;21086;44.780;17.194;2023-11-18T06:38:37;6.53;;;4.35;;
34876;SDS011;21086;44.780;17.194;2023-11-18T06:41:24;6.97;;;5.15;;
34876;SDS011;21086;44.780;17.194;2023-11-18T06:44:21;6.70;;;5.40;;
34876;SDS011;21086;44.780;17.194;2023-11-18T06:47:10;9.20;;;5.30;;
34876;SDS011;21086;44.780;17.194;2023-11-18T06:49:59;9.38;;;6.75;;
34876;SDS011;21086;44.780;17.194;2023-11-18T06:52:47;9.43;;;6.63;;
34876;SDS011;21086;44.780;17.194;2023-11-18T06:55:34;11.00;;;6.80;;
34876;SDS011;21086;44.780;17.194;2023-11-18T06:58:22;7.43;;;5.75;;
34876;SDS011;21086;44.780;17.194;2023-11-18T07:01:12;5.53;;;3.88;;
34876;SDS011;21086;44.780;17.194;2023-11-18T07:04:02;6.13;;;3.85;;
34876;SDS011;21086;44.780;17.194;2023-11-18T07:06:49;5.22;;;3.47;;
34876;SDS011;21086;44.780;17.194;2023-11-18T07:09:37;4.10;;;3.13;;
34876;SDS011;21086;44.780;17.194;2023-11-18T07:12:24;5.10;;;3.40;;
34876;SDS011;21086;44.780;17.194;2023-11-18T07:15:11;5.18;;;2.95;;
34876;SDS011;21086;44.780;17.194;2023-11-18T07:17:58;3.15;;;2.20;;
34876;SDS011;21086;44.780;17.194;2023-11-18T07:20:46;5.05;;;4.25;;
34876;SDS011;21086;44.780;17.194;2023-11-18T07:23:33;3.63;;;3.05;;
34876;SDS011;21086;44.780;17.194;2023-11-18T07:26:21;3.30;;;2.58;;
34876;SDS011;21086;44.780;17.194;2023-11-18T07:29:08;5.38;;;2.50;;
34876;SDS011;21086;44.780;17.194;2023-11-18T07:31:55;6.47;;;4.40;;
34876;SDS011;21086;44.780;17.194;2023-11-18T07:34:42;5.88;;;3.88;;
34876;SDS011;21086;44.780;17.194;2023-11-18T07:37:30;4.85;;;3.30;;
34876;SDS011;21086;44.780;17.194;2023-11-18T07:40:19;4.25;;;2.92;;
34876;SDS011;21086;44.780;17.194;2023-11-18T07:43:14;3.65;;;3.05;;
34876;SDS011;21086;44.780;17.194;2023-11-18T07:46:02;4.45;;;3.40;;
34876;SDS011;21086;44.780;17.194;2023-11-18T07:48:51;4.95;;;3.22;;
34876;SDS011;21086;44.780;17.194;2023-11-18T07:51:38;6.60;;;3.35;;
34876;SDS011;21086;44.780;17.194;2023-11-18T07:54:28;8.57;;;5.93;;
34876;SDS011;21086;44.780;17.194;2023-11-18T07:57:15;4.78;;;3.38;;
34876;SDS011;21086;44.780;17.194;2023-11-18T08:00:03;5.03;;;3.40;;
34876;SDS011;21086;44.780;17.194;2023-11-18T08:02:55;6.03;;;3.25;;
34876;SDS011;21086;44.780;17.194;2023-11-18T08:05:47;11.75;;;5.05;;
34876;SDS011;21086;44.780;17.194;2023-11-18T08:08:35;3.83;;;2.60;;
34876;SDS011;21086;44.780;17.194;2023-11-18T08:11:25;3.72;;;2.45;;
34876;SDS011;21086;44.780;17.194;2023-11-18T08:14:12;3.60;;;2.88;;
34876;SDS011;21086;44.780;17.194;2023-11-18T08:17:00;4.97;;;2.92;;
34876;SDS011;21086;44.780;17.194;2023-11-18T08:19:47;4.50;;;2.92;;
34876;SDS011;21086;44.780;17.194;2023-11-18T08:22:34;3.22;;;2.28;;
34876;SDS011;21086;44.780;17.194;2023-11-18T08:25:22;3.67;;;2.63;;
34876;SDS011;21086;44.780;17.194;2023-11-18T08:28:09;4.07;;;2.80;;
34876;SDS011;21086;44.780;17.194;2023-11-18T08:30:58;3.25;;;2.70;;
34876;SDS011;21086;44.780;17.194;2023-11-18T08:33:47;3.78;;;2.90;;
34876;SDS011;21086;44.780;17.194;2023-11-18T08:36:34;4.55;;;3.03;;
34876;SDS011;21086;44.780;17.194;2023-11-18T08:39:22;4.00;;;3.00;;
34876;SDS011;21086;44.780;17.194;2023-11-18T08:42:12;3.42;;;2.28;;
34876;SDS011;21086;44.780;17.194;2023-11-18T08:45:01;3.60;;;2.40;;
34876;SDS011;21086;44.780;17.194;2023-11-18T08:47:52;4.00;;;3.60;;
34876;SDS011;21086;44.780;17.194;2023-11-18T08:50:40;3.47;;;2.60;;
34876;SDS011;21086;44.780;17.194;2023-11-18T08:53:27;4.15;;;3.15;;
34876;SDS011;21086;44.780;17.194;2023-11-18T08:56:14;2.63;;;1.75;;
34876;SDS011;21086;44.780;17.194;2023-11-18T08:59:01;1.63;;;1.35;;
34876;SDS011;21086;44.780;17.194;2023-11-18T09:01:49;1.60;;;1.00;;
34876;SDS011;21086;44.780;17.194;2023-11-18T09:04:36;3.13;;;2.13;;
34876;SDS011;21086;44.780;17.194;2023-11-18T09:07:24;9.77;;;5.30;;
34876;SDS011;21086;44.780;17.194;2023-11-18T09:10:11;2.70;;;2.03;;
34876;SDS011;21086;44.780;17.194;2023-11-18T09:12:58;2.97;;;1.88;;
34876;SDS011;21086;44.780;17.194;2023-11-18T09:15:48;3.65;;;2.22;;
34876;SDS011;21086;44.780;17.194;2023-11-18T09:18:37;4.85;;;2.88;;
34876;SDS011;21086;44.780;17.194;2023-11-18T09:21:29;2.42;;;1.55;;
34876;SDS011;21086;44.780;17.194;2023-11-18T09:24:19;1.67;;;1.30;;
34876;SDS011;21086;44.780;17.194;2023-11-18T09:27:06;1.80;;;1.20;;
34876;SDS011;21086;44.780;17.194;2023-11-18T09:29:55;2.13;;;1.45;;
34876;SDS011;21086;44.780;17.194;2023-11-18T09:32:43;1.52;;;1.05;;
34876;SDS011;21086;44.780;17.194;2023-11-18T09:35:34;2.35;;;1.63;;
34876;SDS011;21086;44.780;17.194;2023-11-18T09:38:21;1.38;;;1.10;;
34876;SDS011;21086;44.780;17.194;2023-11-18T09:41:09;1.05;;;0.80;;
34876;SDS011;21086;44.780;17.194;2023-11-18T09:44:00;1.45;;;1.10;;
34876;SDS011;21086;44.780;17.194;2023-11-18T09:46:49;0.90;;;0.70;;
34876;SDS011;21086;44.780;17.194;2023-11-18T09:49:44;1.85;;;1.27;;
34876;SDS011;21086;44.780;17.194;2023-11-18T09:52:38;2.88;;;1.60;;
34876;SDS011;21086;44.780;17.194;2023-11-18T09:55:40;3.22;;;1.25;;
34876;SDS011;21086;44.780;17.194;2023-11-18T09:58:37;1.52;;;1.13;;
34876;SDS011;21086;44.780;17.194;2023-11-18T10:01:30;1.20;;;0.93;;
34876;SDS011;21086;44.780;17.194;2023-11-18T10:04:24;1.20;;;0.80;;
34876;SDS011;21086;44.780;17.194;2023-11-18T10:07:15;1.15;;;0.70;;
34876;SDS011;21086;44.780;17.194;2023-11-18T10:10:06;2.25;;;0.93;;
34876;SDS011;21086;44.780;17.194;2023-11-18T10:13:01;4.63;;;2.47;;
34876;SDS011;21086;44.780;17.194;2023-11-18T10:15:51;0.60;;;0.60;;
34876;SDS011;21086;44.780;17.194;2023-11-18T10:18:44;3.35;;;2.85;;
34876;SDS011;21086;44.780;17.194;2023-11-18T10:21:35;4.43;;;4.03;;
34876;SDS011;21086;44.780;17.194;2023-11-18T10:24:26;1.42;;;1.13;;
34876;SDS011;21086;44.780;17.194;2023-11-18T10:27:14;1.42;;;0.98;;
34876;SDS011;21086;44.780;17.194;2023-11-18T10:30:03;5.20;;;3.38;;
34876;SDS011;21086;44.780;17.194;2023-11-18T10:32:58;1.17;;;0.80;;
34876;SDS011;21086;44.780;17.194;2023-11-18T10:35:53;5.25;;;2.03;;
34876;SDS011;21086;44.780;17.194;2023-11-18T10:38:42;2.55;;;1.25;;
34876;SDS011;21086;44.780;17.194;2023-11-18T10:41:39;4.22;;;2.30;;
34876;SDS011;21086;44.780;17.194;2023-11-18T10:44:30;3.22;;;2.03;;
34876;SDS011;21086;44.780;17.194;2023-11-18T10:47:17;4.00;;;2.97;;
34876;SDS011;21086;44.780;17.194;2023-11-18T10:50:05;6.40;;;4.15;;
34876;SDS011;21086;44.780;17.194;2023-11-18T10:52:57;2.38;;;1.33;;
34876;SDS011;21086;44.780;17.194;2023-11-18T10:55:47;4.05;;;3.10;;
34876;SDS011;21086;44.780;17.194;2023-11-18T10:58:35;4.05;;;2.42;;
34876;SDS011;21086;44.780;17.194;2023-11-18T11:01:28;3.97;;;2.92;;
34876;SDS011;21086;44.780;17.194;2023-11-18T11:04:16;2.63;;;1.42;;
34876;SDS011;21086;44.780;17.194;2023-11-18T11:07:07;1.38;;;1.25;;
34876;SDS011;21086;44.780;17.194;2023-11-18T11:09:54;1.60;;;1.30;;
34876;SDS011;21086;44.780;17.194;2023-11-18T11:12:46;1.88;;;1.55;;
34876;SDS011;21086;44.780;17.194;2023-11-18T11:15:40;1.95;;;0.73;;
34876;SDS011;21086;44.780;17.194;2023-11-18T11:18:42;1.80;;;0.85;;
34876;SDS011;21086;44.780;17.194;2023-11-18T11:21:43;1.55;;;0.98;;
34876;SDS011;21086;44.780;17.194;2023-11-18T11:28:22;3.13;;;2.53;;
34876;SDS011;21086;44.780;17.194;2023-11-18T11:31:17;2.80;;;2.40;;
34876;SDS011;21086;44.780;17.194;2023-11-18T11:34:19;3.22;;;2.53;;
34876;SDS011;21086;44.780;17.194;2023-11-18T11:37:10;3.55;;;1.75;;
34876;SDS011;21086;44.780;17.194;2023-11-18T11:39:58;5.75;;;3.38;;
34876;SDS011;21086;44.780;17.194;2023-11-18T11:42:50;1.90;;;1.33;;
34876;SDS011;21086;44.780;17.194;2023-11-18T11:45:42;3.15;;;2.80;;
34876;SDS011;21086;44.780;17.194;2023-11-18T11:48:34;0.60;;;0.52;;
34876;SDS011;21086;44.780;17.194;2023-11-18T11:51:28;1.98;;;1.00;;
34876;SDS011;21086;44.780;17.194;2023-11-18T11:54:27;1.45;;;1.05;;
34876;SDS011;21086;44.780;17.194;2023-11-18T11:57:23;0.68;;;0.52;;
34876;SDS011;21086;44.780;17.194;2023-11-18T12:00:18;0.80;;;0.60;;
34876;SDS011;21086;44.780;17.194;2023-11-18T12:03:06;0.95;;;0.60;;
34876;SDS011;21086;44.780;17.194;2023-11-18T12:05:59;1.30;;;1.15;;
34876;SDS011;21086;44.780;17.194;2023-11-18T12:08:58;2.20;;;1.50;;
34876;SDS011;21086;44.780;17.194;2023-11-18T12:11:46;2.35;;;1.23;;
34876;SDS011;21086;44.780;17.194;2023-11-18T12:14:50;1.25;;;0.95;;
34876;SDS011;21086;44.780;17.194;2023-11-18T12:20:46;0.95;;;0.60;;
34876;SDS011;21086;44.780;17.194;2023-11-18T12:23:51;0.50;;;0.40;;
34876;SDS011;21086;44.780;17.194;2023-11-18T12:27:09;0.40;;;0.40;;
34876;SDS011;21086;44.780;17.194;2023-11-18T12:29:59;17.30;;;14.82;;
34876;SDS011;21086;44.780;17.194;2023-11-18T12:42:06;1.48;;;1.25;;
34876;SDS011;21086;44.780;17.194;2023-11-18T12:48:30;0.85;;;0.73;;
34876;SDS011;21086;44.780;17.194;2023-11-18T12:51:19;0.60;;;0.40;;
34876;SDS011;21086;44.780;17.194;2023-11-18T12:54:07;1.73;;;0.70;;
34876;SDS011;21086;44.780;17.194;2023-11-18T12:56:55;0.30;;;0.30;;
34876;SDS011;21086;44.780;17.194;2023-11-18T12:59:43;1.00;;;0.57;;
34876;SDS011;21086;44.780;17.194;2023-11-18T13:02:31;1.70;;;0.40;;
34876;SDS011;21086;44.780;17.194;2023-11-18T13:05:19;2.25;;;1.70;;
34876;SDS011;21086;44.780;17.194;2023-11-18T13:08:07;1.40;;;1.20;;
34876;SDS011;21086;44.780;17.194;2023-11-18T13:10:54;0.95;;;0.65;;
34876;SDS011;21086;44.780;17.194;2023-11-18T13:13:42;1.63;;;0.40;;
34876;SDS011;21086;44.780;17.194;2023-11-18T13:16:30;0.40;;;0.40;;
34876;SDS011;21086;44.780;17.194;2023-11-18T13:19:26;0.60;;;0.40;;
34876;SDS011;21086;44.780;17.194;2023-11-18T13:22:15;2.17;;;0.80;;
34876;SDS011;21086;44.780;17.194;2023-11-18T13:25:06;1.70;;;1.40;;
34876;SDS011;21086;44.780;17.194;2023-11-18T13:27:53;1.85;;;1.40;;
34876;SDS011;21086;44.780;17.194;2023-11-18T13:30:41;2.45;;;1.90;;
34876;SDS011;21086;44.780;17.194;2023-11-18T13:33:29;1.30;;;0.93;;
34876;SDS011;21086;44.780;17.194;2023-11-18T13:36:17;0.82;;;0.70;;
34876;SDS011;21086;44.780;17.194;2023-11-18T13:39:04;2.90;;;1.05;;
34876;SDS011;21086;44.780;17.194;2023-11-18T13:41:53;0.88;;;0.50;;
34876;SDS011;21086;44.780;17.194;2023-11-18T13:44:41;3.30;;;3.00;;
34876;SDS011;21086;44.780;17.194;2023-11-18T13:47:29;1.65;;;1.00;;
34876;SDS011;21086;44.780;17.194;2023-11-18T13:50:18;1.52;;;1.05;;
34876;SDS011;21086;44.780;17.194;2023-11-18T13:53:06;0.73;;;0.70;;
34876;SDS011;21086;44.780;17.194;2023-11-18T13:55:57;4.03;;;2.85;;
34876;SDS011;21086;44.780;17.194;2023-11-18T13:58:44;1.77;;;1.20;;
34876;SDS011;21086;44.780;17.194;2023-11-18T14:01:33;4.13;;;2.60;;
34876;SDS011;21086;44.780;17.194;2023-11-18T14:04:27;2.95;;;2.22;;
34876;SDS011;21086;44.780;17.194;2023-11-18T14:07:15;2.03;;;1.60;;
34876;SDS011;21086;44.780;17.194;2023-11-18T14:10:04;5.15;;;4.07;;
34876;SDS011;21086;44.780;17.194;2023-11-18T14:12:58;8.02;;;6.93;;
34876;SDS011;21086;44.780;17.194;2023-11-18T14:15:47;10.75;;;9.30;;
34876;SDS011;21086;44.780;17.194;2023-11-18T14:18:35;9.82;;;8.38;;
34876;SDS011;21086;44.780;17.194;2023-11-18T14:21:23;6.50;;;4.60;;
34876;SDS011;21086;44.780;17.194;2023-11-18T14:24:10;6.35;;;4.45;;
34876;SDS011;21086;44.780;17.194;2023-11-18T14:26:58;8.77;;;7.18;;
34876;SDS011;21086;44.780;17.194;2023-11-18T14:29:45;7.05;;;4.93;;
34876;SDS011;21086;44.780;17.194;2023-11-18T14:32:33;12.50;;;7.32;;
34876;SDS011;21086;44.780;17.194;2023-11-18T14:35:21;15.70;;;10.43;;
34876;SDS011;21086;44.780;17.194;2023-11-18T14:38:10;14.00;;;9.88;;
34876;SDS011;21086;44.780;17.194;2023-11-18T14:40:59;22.77;;;15.55;;
34876;SDS011;21086;44.780;17.194;2023-11-18T14:43:46;16.75;;;12.45;;
34876;SDS011;21086;44.780;17.194;2023-11-18T14:46:34;13.45;;;9.73;;
34876;SDS011;21086;44.780;17.194;2023-11-18T14:49:24;28.30;;;19.77;;
34876;SDS011;21086;44.780;17.194;2023-11-18T14:52:11;30.83;;;18.87;;
34876;SDS011;21086;44.780;17.194;2023-11-18T14:54:58;20.00;;;14.27;;
34876;SDS011;21086;44.780;17.194;2023-11-18T14:57:49;38.17;;;23.58;;
34876;SDS011;21086;44.780;17.194;2023-11-18T15:01:03;19.27;;;12.60;;
34876;SDS011;21086;44.780;17.194;2023-11-18T15:03:53;34.88;;;24.25;;
34876;SDS011;21086;44.780;17.194;2023-11-18T15:06:42;24.50;;;16.20;;
34876;SDS011;21086;44.780;17.194;2023-11-18T15:09:30;15.25;;;11.18;;
34876;SDS011;21086;44.780;17.194;2023-11-18T15:12:25;17.73;;;12.80;;
34876;SDS011;21086;44.780;17.194;2023-11-18T15:15:16;16.95;;;11.85;;
34876;SDS011;21086;44.780;17.194;2023-11-18T15:18:05;22.98;;;16.98;;
34876;SDS011;21086;44.780;17.194;2023-11-18T15:20:55;34.45;;;23.17;;
34876;SDS011;21086;44.780;17.194;2023-11-18T15:23:43;42.15;;;28.55;;
34876;SDS011;21086;44.780;17.194;2023-11-18T15:26:30;47.50;;;31.92;;
34876;SDS011;21086;44.780;17.194;2023-11-18T15:29:18;51.38;;;36.60;;
34876;SDS011;21086;44.780;17.194;2023-11-18T15:32:06;43.42;;;30.73;;
34876;SDS011;21086;44.780;17.194;2023-11-18T15:34:55;52.00;;;34.75;;
34876;SDS011;21086;44.780;17.194;2023-11-18T15:37:45;63.60;;;39.53;;
34876;SDS011;21086;44.780;17.194;2023-11-18T15:40:32;31.33;;;22.48;;
34876;SDS011;21086;44.780;17.194;2023-11-18T15:43:19;26.27;;;19.00;;
34876;SDS011;21086;44.780;17.194;2023-11-18T15:46:09;16.85;;;11.68;;
34876;SDS011;21086;44.780;17.194;2023-11-18T15:48:57;15.50;;;10.88;;
34876;SDS011;21086;44.780;17.194;2023-11-18T15:51:46;12.60;;;9.52;;
34876;SDS011;21086;44.780;17.194;2023-11-18T15:54:33;14.93;;;11.43;;
34876;SDS011;21086;44.780;17.194;2023-11-18T15:57:20;14.25;;;9.57;;
34876;SDS011;21086;44.780;17.194;2023-11-18T16:00:11;19.25;;;12.55;;
34876;SDS011;21086;44.780;17.194;2023-11-18T16:03:03;15.68;;;10.57;;
34876;SDS011;21086;44.780;17.194;2023-11-18T16:05:55;10.48;;;8.65;;
34876;SDS011;21086;44.780;17.194;2023-11-18T16:08:43;13.15;;;10.23;;
34876;SDS011;21086;44.780;17.194;2023-11-18T16:11:33;14.40;;;11.18;;
34876;SDS011;21086;44.780;17.194;2023-11-18T16:14:23;15.85;;;12.02;;
34876;SDS011;21086;44.780;17.194;2023-11-18T16:17:11;17.00;;;11.15;;
34876;SDS011;21086;44.780;17.194;2023-11-18T16:19:59;11.15;;;7.72;;
34876;SDS011;21086;44.780;17.194;2023-11-18T16:22:49;10.80;;;7.30;;
34876;SDS011;21086;44.780;17.194;2023-11-18T16:25:38;12.75;;;8.23;;
34876;SDS011;21086;44.780;17.194;2023-11-18T16:28:25;16.27;;;11.02;;
34876;SDS011;21086;44.780;17.194;2023-11-18T16:31:15;17.05;;;12.25;;
34876;SDS011;21086;44.780;17.194;2023-11-18T16:34:04;17.08;;;11.38;;
34876;SDS011;21086;44.780;17.194;2023-11-18T16:36:55;15.02;;;10.75;;
34876;SDS011;21086;44.780;17.194;2023-11-18T16:39:43;14.73;;;11.02;;
34876;SDS011;21086;44.780;17.194;2023-11-18T16:42:36;19.67;;;14.25;;
34876;SDS011;21086;44.780;17.194;2023-11-18T16:45:23;19.85;;;15.05;;
34876;SDS011;21086;44.780;17.194;2023-11-18T16:48:12;23.48;;;15.80;;
34876;SDS011;21086;44.780;17.194;2023-11-18T16:50:59;24.40;;;16.30;;
34876;SDS011;21086;44.780;17.194;2023-11-18T16:53:49;25.13;;;16.10;;
34876;SDS011;21086;44.780;17.194;2023-11-18T16:56:38;33.33;;;21.35;;
34876;SDS011;21086;44.780;17.194;2023-11-18T16:59:27;37.63;;;23.80;;
34876;SDS011;21086;44.780;17.194;2023-11-18T17:02:14;29.15;;;21.05;;